Time;durP1;ratioP1;P1;durP2;ratioP2;P2;SDS_P1;SDS_P2;PMS_P1;PMS_P2;Temp;Humidity;BMP_temperature;BMP_pressure;BME280_temperature;BME280_humidity;BME280_pressure;Samples;Min_cycle;Max_cycle;Signal;HPM_P1;HPM_P2
2021/12/15 00:00:17;;;;;;;771.10;727.70;;;;;;;8.85;77.22;102273.88;683739;28;46300;-69
2021/12/15 00:00:39;;;;;;;786.67;742.08;;;;;;;8.84;77.01;102272.19;682071;28;92290;-69
2021/12/15 00:01:01;;;;;;;776.45;732.95;;;;;;;8.82;77.08;102272.31;683874;28;44386;-70
2021/12/15 00:01:24;;;;;;;753.67;712.13;;;;;;;8.84;77.03;102274.88;683524;28;45256;-69
2021/12/15 00:01:46;;;;;;;765.55;722.92;;;;;;;8.83;77.06;102273.16;683552;28;69197;-70
2021/12/15 00:02:12;;;;;;;771.97;728.72;;;;;;;8.84;77.25;102274.88;683838;28;46407;-69
2021/12/15 00:02:33;;;;;;;804.28;758.53;;;;;;;8.86;77.40;102280.16;680665;28;137425;-70
2021/12/15 00:02:56;;;;;;;794.03;749.13;;;;;;;8.85;77.13;102279.28;683660;28;21530;-69
2021/12/15 00:03:19;;;;;;;787.83;743.38;;;;;;;8.83;77.32;102274.00;682833;28;67493;-68
2021/12/15 00:03:41;;;;;;;801.03;755.65;;;;;;;8.83;77.26;102276.72;683040;28;69824;-70
2021/12/15 00:04:03;;;;;;;791.72;747.03;;;;;;;8.83;77.42;102278.56;683752;28;46251;-69
2021/12/15 00:04:25;;;;;;;802.03;756.67;;;;;;;8.83;77.23;102281.25;683792;28;44376;-69
2021/12/15 00:04:50;;;;;;;800.60;755.20;;;;;;;8.83;77.44;102275.84;684607;28;23448;-70
2021/12/15 00:05:13;;;;;;;773.60;730.03;;;;;;;8.83;77.20;102275.84;680398;28;137777;-70
2021/12/15 00:05:35;;;;;;;799.20;754.15;;;;;;;8.83;77.38;102279.41;683051;28;69094;-70
2021/12/15 00:05:58;;;;;;;811.40;765.25;;;;;;;8.84;77.43;102282.97;683651;28;44401;-69
2021/12/15 00:06:19;;;;;;;805.25;759.42;;;;;;;8.84;77.31;102282.97;683892;28;45087;-70
2021/12/15 00:06:41;;;;;;;807.42;761.50;;;;;;;8.84;77.62;102275.72;683576;28;46237;-70
2021/12/15 00:07:03;;;;;;;816.60;769.97;;;;;;;8.86;77.35;102277.47;683652;28;45050;-69
2021/12/15 00:07:27;;;;;;;804.80;758.95;;;;;;;8.84;77.37;102281.13;683840;28;46384;-70
2021/12/15 00:07:52;;;;;;;825.33;778.10;;;;;;;8.84;77.19;102278.44;680848;28;90350;-69
2021/12/15 00:08:14;;;;;;;822.88;775.75;;;;;;;8.86;77.49;102275.59;681321;28;113718;-69
2021/12/15 00:08:35;;;;;;;802.10;756.45;;;;;;;8.88;77.24;102280.88;683733;28;46322;-69
2021/12/15 00:09:00;;;;;;;809.42;763.47;;;;;;;8.86;77.17;102281.00;684724;28;22399;-69
2021/12/15 00:09:21;;;;;;;818.80;772.05;;;;;;;8.87;77.39;102276.44;681324;28;114956;-69
2021/12/15 00:09:43;;;;;;;804.88;758.75;;;;;;;8.86;77.43;102275.59;684658;28;21401;-69
2021/12/15 00:10:06;;;;;;;827.10;779.45;;;;;;;8.86;77.38;102281.00;683832;28;44233;-68
2021/12/15 00:10:28;;;;;;;825.17;777.60;;;;;;;8.86;77.29;102285.53;682818;28;69433;-69
2021/12/15 00:10:50;;;;;;;677.88;640.63;;;;;;;8.83;77.21;102281.25;683576;28;44385;-69
2021/12/15 00:11:11;;;;;;;609.20;578.00;;;;;;;8.83;77.28;102275.84;684372;28;21370;-70
2021/12/15 00:11:37;;;;;;;736.63;696.20;;;;;;;8.83;77.33;102274.00;683711;28;44171;-70
2021/12/15 00:12:02;;;;;;;819.13;771.88;;;;;;;8.83;77.43;102279.41;681343;28;115352;-69
2021/12/15 00:12:24;;;;;;;833.90;785.80;;;;;;;8.83;77.38;102268.63;680695;28;138752;-69
2021/12/15 00:12:48;;;;;;;819.03;771.53;;;;;;;8.82;77.25;102274.13;682276;28;66535;-69
2021/12/15 00:13:10;;;;;;;822.72;775.40;;;;;;;8.85;77.53;102271.19;683703;28;45251;-70
2021/12/15 00:13:33;;;;;;;854.97;805.65;;;;;;;8.84;77.61;102272.19;682695;28;67615;-69
2021/12/15 00:13:57;;;;;;;841.97;793.13;;;;;;;8.83;77.59;102276.72;682922;28;67499;-69
2021/12/15 00:14:20;;;;;;;831.92;783.75;;;;;;;8.84;77.60;102278.44;682160;28;92110;-69
2021/12/15 00:14:43;;;;;;;847.92;798.83;;;;;;;8.82;77.50;102272.31;683184;28;67488;-70
2021/12/15 00:15:05;;;;;;;855.35;805.75;;;;;;;8.82;77.33;102271.44;683638;28;46347;-69
2021/12/15 00:15:29;;;;;;;839.05;791.05;;;;;;;8.86;77.63;102274.75;682658;28;69394;-69
2021/12/15 00:15:50;;;;;;;865.35;815.40;;;;;;;8.86;77.35;102275.59;682812;28;67392;-69
2021/12/15 00:16:12;;;;;;;874.72;823.90;;;;;;;8.84;77.60;102267.66;684385;28;22374;-69
2021/12/15 00:16:34;;;;;;;851.53;802.78;;;;;;;8.88;77.60;102272.78;683009;28;69056;-70
2021/12/15 00:16:56;;;;;;;848.85;800.42;;;;;;;8.88;77.47;102276.31;683827;28;44431;-69
2021/12/15 00:17:18;;;;;;;864.95;815.45;;;;;;;8.88;77.05;102276.31;683654;28;44536;-69
2021/12/15 00:17:39;;;;;;;866.70;817.05;;;;;;;8.88;77.13;102273.63;683194;28;22417;-70
2021/12/15 00:18:02;;;;;;;872.47;822.30;;;;;;;8.85;77.06;102279.28;683897;28;44046;-68
2021/12/15 00:18:23;;;;;;;884.70;834.03;;;;;;;8.86;77.09;102272.91;685015;28;1676;-69
2021/12/15 00:18:45;;;;;;;875.85;825.75;;;;;;;8.86;77.28;102275.59;684517;28;22422;-69
2021/12/15 00:19:06;;;;;;;754.10;712.75;;;;;;;8.84;77.13;102275.72;683342;28;45242;-69
2021/12/15 00:19:28;;;;;;;736.58;695.58;;;;;;;8.84;77.21;102278.44;683707;28;46339;-70
2021/12/15 00:19:51;;;;;;;862.42;812.70;;;;;;;8.83;77.47;102279.41;683876;28;45088;-70
2021/12/15 00:20:15;;;;;;;918.45;865.35;;;;;;;8.83;77.45;102276.72;683795;28;45090;-70
2021/12/15 00:20:37;;;;;;;949.78;894.40;;;;;;;8.81;77.20;102269.75;681072;28;114961;-69
2021/12/15 00:20:58;;;;;;;951.22;895.70;;;;;;;8.83;77.31;102274.00;684579;28;22379;-69
2021/12/15 00:21:21;;;;;;;976.00;919.13;;;;;;;8.83;77.44;102279.41;684169;28;22782;-70
2021/12/15 00:21:42;;;;;;;1021.80;960.97;;;;;;;8.82;77.23;102277.72;682653;28;67501;-69
2021/12/15 00:22:04;;;;;;;804.50;757.97;;;;;;;8.83;77.46;102275.84;686570;28;46860;-70
2021/12/15 00:22:25;;;;;;;680.83;643.83;;;;;;;8.83;77.33;102279.41;686932;28;22391;-71
2021/12/15 00:22:52;;;;;;;694.65;656.78;;;;;;;8.82;77.33;102269.63;685253;28;47250;-69
2021/12/15 00:23:14;;;;;;;666.63;630.83;;;;;;;8.83;77.13;102270.47;682855;28;136445;-70
2021/12/15 00:23:36;;;;;;;665.45;629.63;;;;;;;8.83;77.46;102279.41;685408;28;69330;-69
2021/12/15 00:23:58;;;;;;;706.10;667.58;;;;;;;8.82;77.19;102268.75;685622;28;21302;-69
2021/12/15 00:24:19;;;;;;;713.47;675.58;;;;;;;8.84;77.37;102277.59;683826;28;44227;-69
2021/12/15 00:24:42;;;;;;;711.40;673.45;;;;;;;8.83;77.17;102271.31;684610;28;23469;-69
2021/12/15 00:25:04;;;;;;;771.75;728.47;;;;;;;8.84;77.22;102277.59;682489;28;65837;-69
2021/12/15 00:25:29;;;;;;;858.67;808.95;;;;;;;8.84;77.32;102274.88;684175;28;28565;-70
2021/12/15 00:25:51;;;;;;;788.42;743.45;;;;;;;8.84;77.36;102277.59;681666;28;92259;-69
2021/12/15 00:26:12;;;;;;;726.30;685.47;;;;;;;8.84;77.17;102277.59;683387;28;45307;-69
2021/12/15 00:26:35;;;;;;;522.53;495.00;;;;;;;8.85;77.44;102268.50;683636;28;46412;-69
2021/12/15 00:26:57;;;;;;;610.58;577.05;;;;;;;8.84;77.38;102274.88;683333;28;46324;-69
2021/12/15 00:27:18;;;;;;;916.25;861.95;;;;;;;8.84;77.24;102275.72;683570;28;46393;-70
2021/12/15 00:27:41;;;;;;;877.60;826.13;;;;;;;8.84;77.19;102270.34;683333;28;22412;-71
2021/12/15 00:28:02;;;;;;;791.53;745.35;;;;;;;8.86;77.19;102280.16;682677;28;69844;-69
2021/12/15 00:28:25;;;;;;;787.47;741.97;;;;;;;8.85;77.46;102273.88;682995;28;67244;-71
2021/12/15 00:28:47;;;;;;;779.10;734.63;;;;;;;8.86;77.19;102275.59;684609;28;22432;-69
2021/12/15 00:29:09;;;;;;;763.25;720.47;;;;;;;8.89;77.15;102275.34;685936;28;46425;-69
2021/12/15 00:29:31;;;;;;;774.17;730.13;;;;;;;8.90;77.38;102282.44;686229;28;46419;-69
2021/12/15 00:29:52;;;;;;;785.10;739.70;;;;;;;8.89;77.37;102272.66;686054;28;44375;-70
2021/12/15 00:30:14;;;;;;;773.30;729.78;;;;;;;8.89;77.08;102272.66;687109;28;22337;-69
2021/12/15 00:30:37;;;;;;;783.70;739.85;;;;;;;8.91;77.32;102280.63;686262;28;44120;-69
2021/12/15 00:30:58;;;;;;;799.80;754.58;;;;;;;8.92;77.38;102280.47;684962;28;69277;-69
2021/12/15 00:31:22;;;;;;;644.88;611.10;;;;;;;8.95;77.02;102276.66;687015;28;24216;-70
2021/12/15 00:31:46;;;;;;;734.45;693.67;;;;;;;8.96;77.06;102287.31;684353;28;92129;-69
2021/12/15 00:32:09;;;;;;;854.50;805.00;;;;;;;8.98;76.98;102276.41;685061;28;69341;-69
2021/12/15 00:32:31;;;;;;;935.22;880.10;;;;;;;8.95;77.14;102271.25;686645;28;13467;-69
2021/12/15 00:32:53;;;;;;;962.63;906.20;;;;;;;8.98;77.00;102276.41;683811;28;45301;-70
2021/12/15 00:33:14;;;;;;;885.75;834.90;;;;;;;8.98;77.00;102273.72;686945;28;22507;-69
2021/12/15 00:33:37;;;;;;;851.22;802.53;;;;;;;8.97;76.87;102275.56;686163;28;45256;-69
2021/12/15 00:33:59;;;;;;;851.05;802.22;;;;;;;8.97;76.89;102274.72;686663;28;28465;-69
2021/12/15 00:34:21;;;;;;;904.38;851.95;;;;;;;8.95;76.75;102274.84;687368;28;1604;-68
2021/12/15 00:34:45;;;;;;;958.97;901.42;;;;;;;8.96;76.66;102264.91;685977;28;46348;-69
2021/12/15 00:35:07;;;;;;;830.70;783.05;;;;;;;8.95;76.98;102272.16;684347;28;91939;-70
2021/12/15 00:35:29;;;;;;;780.05;735.30;;;;;;;8.96;76.66;102268.44;686018;28;46403;-70
2021/12/15 00:35:50;;;;;;;747.15;705.42;;;;;;;8.95;76.68;102273.97;684634;28;46294;-69
2021/12/15 00:36:13;;;;;;;722.20;683.25;;;;;;;8.91;76.76;102269.84;685473;28;22495;-70
2021/12/15 00:36:35;;;;;;;711.00;672.73;;;;;;;8.92;76.99;102272.41;683938;28;69475;-70
2021/12/15 00:36:57;;;;;;;707.65;669.55;;;;;;;8.93;76.86;102276.78;683600;28;69434;-69
2021/12/15 00:37:18;;;;;;;679.88;644.08;;;;;;;8.92;76.68;102269.72;685386;28;23483;-70
2021/12/15 00:37:40;;;;;;;698.88;661.47;;;;;;;8.91;76.73;102273.38;683434;28;46330;-70
2021/12/15 00:38:02;;;;;;;691.05;654.58;;;;;;;8.89;76.94;102271.81;686439;28;43879;-69
2021/12/15 00:38:25;;;;;;;659.03;624.80;;;;;;;8.89;76.88;102269.97;687526;28;2293;-71
2021/12/15 00:38:47;;;;;;;680.40;644.25;;;;;;;8.89;76.69;102269.13;685429;28;67624;-69
2021/12/15 00:39:14;;;;;;;523.42;496.77;;;;;;;8.88;76.94;102272.78;684957;28;69334;-70
2021/12/15 00:39:35;;;;;;;421.00;400.17;;;;;;;8.87;76.70;102268.38;682419;28;138204;-69
2021/12/15 00:39:57;;;;;;;605.10;573.78;;;;;;;8.86;76.90;102270.22;683548;28;23516;-69
2021/12/15 00:40:20;;;;;;;674.30;638.63;;;;;;;8.84;76.95;102264.97;684313;28;22330;-71
2021/12/15 00:40:42;;;;;;;646.40;612.05;;;;;;;8.86;76.68;102266.69;682800;28;69327;-69
2021/12/15 00:41:04;;;;;;;617.13;585.38;;;;;;;8.84;77.05;102267.66;684116;28;69256;-69
2021/12/15 00:41:26;;;;;;;647.70;614.33;;;;;;;8.85;76.78;102268.50;679986;28;46319;-70
2021/12/15 00:41:47;;;;;;;651.28;617.25;;;;;;;8.84;76.92;102272.19;681204;28;22414;-69
2021/12/15 00:42:10;;;;;;;631.30;598.92;;;;;;;8.82;77.04;102268.75;682197;28;44364;-70
2021/12/15 00:42:32;;;;;;;647.90;614.28;;;;;;;8.83;77.01;102265.94;681537;28;69376;-69
2021/12/15 00:42:53;;;;;;;647.95;613.90;;;;;;;8.84;77.07;102270.34;681918;28;23422;-69
2021/12/15 00:43:15;;;;;;;642.92;609.70;;;;;;;8.84;77.01;102264.97;682105;28;46428;-69
2021/12/15 00:43:37;;;;;;;623.80;591.78;;;;;;;8.84;77.21;102266.81;683604;28;44388;-70
2021/12/15 00:44:00;;;;;;;649.88;616.10;;;;;;;8.82;77.11;102266.94;686565;28;45310;-70
2021/12/15 00:44:22;;;;;;;643.28;610.42;;;;;;;8.83;77.11;102265.94;685409;28;69289;-69
2021/12/15 00:44:43;;;;;;;621.42;589.78;;;;;;;8.86;77.20;102270.22;687020;28;21352;-70
2021/12/15 00:45:06;;;;;;;641.70;608.22;;;;;;;8.84;77.15;102262.25;687198;28;21048;-70
2021/12/15 00:45:28;;;;;;;630.13;596.80;;;;;;;8.87;76.97;102268.38;681177;28;92677;-69
2021/12/15 00:45:51;;;;;;;617.60;585.45;;;;;;;8.85;77.21;102271.19;683699;28;44305;-69
2021/12/15 00:46:13;;;;;;;639.00;604.72;;;;;;;8.86;76.86;102272.91;681609;28;92181;-70
2021/12/15 00:46:34;;;;;;;636.75;603.15;;;;;;;8.87;77.09;102265.66;683713;28;45231;-69
2021/12/15 00:46:57;;;;;;;630.40;598.35;;;;;;;8.86;77.23;102267.53;683450;28;45248;-69
2021/12/15 00:47:18;;;;;;;622.13;590.33;;;;;;;8.88;76.96;102272.78;681774;28;46374;-69
2021/12/15 00:47:40;;;;;;;631.60;598.58;;;;;;;8.83;77.13;102262.38;682118;28;46207;-70
2021/12/15 00:48:02;;;;;;;600.42;568.92;;;;;;;8.87;77.25;102265.66;683370;28;45048;-69
2021/12/15 00:48:25;;;;;;;602.75;571.45;;;;;;;8.84;76.99;102261.41;679871;29;65682;-69
2021/12/15 00:48:49;;;;;;;619.22;586.63;;;;;;;8.86;76.96;102272.06;680834;28;45285;-71
2021/12/15 00:49:11;;;;;;;602.50;570.63;;;;;;;8.84;77.01;102270.34;683290;28;67493;-70
2021/12/15 00:49:33;;;;;;;628.33;594.72;;;;;;;8.83;77.16;102276.72;685141;28;44113;-69
2021/12/15 00:49:54;;;;;;;550.83;522.28;;;;;;;8.79;77.04;102263.63;683531;28;45239;-71
2021/12/15 00:50:21;;;;;;;366.90;348.67;;;;;;;8.81;77.21;102262.53;682994;28;46043;-69
2021/12/15 00:50:44;;;;;;;532.38;505.63;;;;;;;8.82;77.01;102269.63;678932;28;136432;-71
2021/12/15 00:51:05;;;;;;;587.45;557.47;;;;;;;8.82;76.87;102277.72;684529;28;69428;-70
2021/12/15 00:51:28;;;;;;;607.92;577.38;;;;;;;8.82;76.86;102271.44;687991;28;22394;-69
2021/12/15 00:51:50;;;;;;;612.88;582.10;;;;;;;8.81;76.88;102273.28;686651;28;70214;-69
2021/12/15 00:52:13;;;;;;;593.85;563.78;;;;;;;8.80;77.09;102271.56;683915;28;69451;-70
2021/12/15 00:52:35;;;;;;;612.20;581.20;;;;;;;8.80;77.05;102278.81;684954;28;45200;-71
2021/12/15 00:52:58;;;;;;;604.30;573.83;;;;;;;8.79;77.08;102275.28;680816;28;37956;-70
2021/12/15 00:53:20;;;;;;;620.88;588.97;;;;;;;8.78;77.29;102283.47;681135;29;33035;-71
2021/12/15 00:53:43;;;;;;;634.53;602.38;;;;;;;8.78;76.98;102281.63;682929;28;21680;-70
2021/12/15 00:54:06;;;;;;;614.17;583.13;;;;;;;8.78;77.34;102276.25;681363;28;69837;-71
2021/12/15 00:54:31;;;;;;;610.28;579.63;;;;;;;8.78;77.43;102278.94;680826;28;93222;-71
2021/12/15 00:54:52;;;;;;;652.20;618.90;;;;;;;8.79;77.31;102282.47;681894;28;90736;-71
2021/12/15 00:55:18;;;;;;;631.40;599.05;;;;;;;8.78;77.11;102278.94;682300;28;44367;-71
2021/12/15 00:55:40;;;;;;;601.80;571.10;;;;;;;8.77;77.31;102279.06;679042;28;115219;-71
2021/12/15 00:56:03;;;;;;;633.70;600.88;;;;;;;8.77;77.30;102277.22;683258;28;67484;-70
2021/12/15 00:56:26;;;;;;;627.17;594.33;;;;;;;8.78;77.19;102280.78;685202;28;14460;-70
2021/12/15 00:56:47;;;;;;;614.00;583.25;;;;;;;8.78;77.05;102278.09;684893;28;46418;-71
2021/12/15 00:57:09;;;;;;;606.85;576.90;;;;;;;8.79;76.97;102279.78;687016;28;22455;-70
2021/12/15 00:57:31;;;;;;;622.10;590.53;;;;;;;8.78;77.16;102283.47;686641;28;46298;-70
2021/12/15 00:57:53;;;;;;;597.10;566.75;;;;;;;8.77;77.08;102277.22;684690;28;44432;-71
2021/12/15 00:58:15;;;;;;;619.20;587.63;;;;;;;8.77;77.35;102279.91;687347;28;47242;-69
2021/12/15 00:58:36;;;;;;;629.35;597.70;;;;;;;8.74;77.42;102280.16;687276;28;46390;-71
2021/12/15 00:58:58;;;;;;;602.45;572.10;;;;;;;8.76;77.36;102283.59;687914;28;22350;-71
2021/12/15 00:59:21;;;;;;;594.85;564.58;;;;;;;8.75;77.14;102276.50;687466;28;45242;-71
2021/12/15 00:59:42;;;;;;;621.67;589.53;;;;;;;8.77;77.08;102279.06;683720;28;68440;-70
2021/12/15 01:00:09;;;;;;;593.47;562.83;;;;;;;8.78;77.23;102287.03;685081;28;69084;-71
2021/12/15 01:00:34;;;;;;;557.03;529.13;;;;;;;8.81;77.00;102284.06;688064;28;35548;-71
2021/12/15 01:00:59;;;;;;;626.40;595.13;;;;;;;8.81;77.10;102277.84;684988;28;116110;-70
2021/12/15 01:01:20;;;;;;;613.08;582.35;;;;;;;8.79;77.17;102285.16;686322;28;79106;-71
2021/12/15 01:01:42;;;;;;;584.75;555.58;;;;;;;8.79;77.23;102286.03;684634;28;43710;-71
2021/12/15 01:02:07;;;;;;;590.53;560.95;;;;;;;8.78;77.07;102280.78;686615;28;23331;-71
2021/12/15 01:02:28;;;;;;;616.35;585.58;;;;;;;8.79;77.10;102288.75;683289;28;135384;-70
2021/12/15 01:02:51;;;;;;;589.15;559.80;;;;;;;8.79;77.43;102288.75;686161;28;22370;-70
2021/12/15 01:03:13;;;;;;;595.22;564.85;;;;;;;8.77;77.16;102282.59;682158;28;68541;-72
2021/12/15 01:03:36;;;;;;;633.45;601.00;;;;;;;8.78;77.32;102292.41;684935;28;2291;-72
2021/12/15 01:03:59;;;;;;;609.55;578.65;;;;;;;8.79;77.17;102287.88;684592;28;892;-71
2021/12/15 01:04:21;;;;;;;577.42;547.83;;;;;;;8.77;76.99;102288.00;682720;28;69477;-71
2021/12/15 01:04:43;;;;;;;568.13;538.95;;;;;;;8.78;77.02;102288.88;683357;28;44354;-72
2021/12/15 01:05:05;;;;;;;599.60;568.58;;;;;;;8.77;77.25;102281.75;685296;28;22367;-71
2021/12/15 01:05:32;;;;;;;577.63;547.83;;;;;;;8.74;77.13;102285.56;685264;28;68910;-71
2021/12/15 01:05:59;;;;;;;569.72;539.88;;;;;;;8.76;77.05;102290.81;683099;28;138010;-72
2021/12/15 01:06:21;;;;;;;569.53;539.65;;;;;;;8.74;77.37;102285.56;683769;28;137801;-71
2021/12/15 01:06:48;;;;;;;561.10;531.85;;;;;;;8.77;77.15;102290.69;682264;28;46265;-70
2021/12/15 01:07:11;;;;;;;598.42;568.08;;;;;;;8.78;76.85;102289.72;678964;28;137685;-71
2021/12/15 01:07:33;;;;;;;579.53;549.83;;;;;;;8.78;77.25;102297.78;681620;28;67483;-68
2021/12/15 01:07:54;;;;;;;566.17;537.30;;;;;;;8.80;77.10;102292.28;681745;28;22182;-70
2021/12/15 01:08:18;;;;;;;559.25;530.75;;;;;;;8.80;76.87;102289.59;682965;28;21521;-72
2021/12/15 01:08:46;;;;;;;561.50;532.45;;;;;;;8.78;77.00;102288.88;680057;28;136430;-70
2021/12/15 01:09:15;;;;;;;557.33;528.80;;;;;;;8.77;76.95;102290.69;679793;28;159351;-71
2021/12/15 01:09:43;;;;;;;555.92;527.10;;;;;;;8.76;77.21;102293.50;682434;28;137486;-71
2021/12/15 01:10:07;;;;;;;577.97;547.63;;;;;;;8.75;77.20;102289.13;682967;28;137999;-70
2021/12/15 01:10:43;;;;;;;590.63;560.08;;;;;;;8.74;77.16;102288.25;683405;28;115181;-70
2021/12/15 01:11:13;;;;;;;557.08;529.05;;;;;;;8.72;77.07;102290.22;681940;28;158950;-71
2021/12/15 01:11:52;;;;;;;596.83;566.17;;;;;;;8.72;77.27;102287.53;682050;28;161078;-71
2021/12/15 01:12:26;;;;;;;385.00;366.83;;;;;;;8.73;77.33;102288.38;683068;28;137397;-72
2021/12/15 01:14:29;;;;;;;579.20;550.38;;;;;;;8.72;77.10;102286.69;681582;28;160597;-70
2021/12/15 01:19:45;;;;;;;526.70;499.50;;;;;;;8.72;77.33;102290.22;684372;28;136123;-70
2021/12/15 01:20:03;;;;;;;607.75;576.95;;;;;;;8.73;77.42;102300.03;677389;28;137889;-70
2021/12/15 01:20:28;;;;;;;609.28;577.72;;;;;;;8.74;77.28;102299.03;681535;28;89896;-73
2021/12/15 01:20:52;;;;;;;591.33;560.55;;;;;;;8.72;77.03;102297.47;684040;28;91103;-70
2021/12/15 01:21:14;;;;;;;590.40;559.65;;;;;;;8.73;77.17;102299.16;684341;28;92253;-71
2021/12/15 01:21:36;;;;;;;604.72;572.78;;;;;;;8.73;77.30;102297.34;685912;28;44370;-71
2021/12/15 01:21:58;;;;;;;578.63;548.13;;;;;;;8.72;77.25;102294.75;685723;28;46389;-69
2021/12/15 01:22:24;;;;;;;601.30;569.33;;;;;;;8.72;77.26;102302.84;685669;28;45298;-71
2021/12/15 01:22:49;;;;;;;597.25;565.97;;;;;;;8.74;77.24;102299.03;680145;28;138143;-72
2021/12/15 01:23:13;;;;;;;502.85;477.25;;;;;;;8.74;77.09;102300.88;683146;28;116041;-71
2021/12/15 01:23:35;;;;;;;380.45;362.42;;;;;;;8.74;77.43;102301.72;684509;28;92176;-70
2021/12/15 01:23:57;;;;;;;537.97;510.98;;;;;;;8.73;77.39;102304.53;687269;28;45242;-70
2021/12/15 01:24:20;;;;;;;611.58;579.90;;;;;;;8.71;77.26;102296.56;686426;28;67465;-70
2021/12/15 01:24:42;;;;;;;623.30;590.70;;;;;;;8.68;77.09;102291.44;687459;28;46348;-69
2021/12/15 01:25:06;;;;;;;595.15;564.72;;;;;;;8.73;77.14;102299.16;688188;28;23473;-70
2021/12/15 01:25:32;;;;;;;591.60;562.50;;;;;;;8.72;77.49;102302.84;685042;28;113703;-71
2021/12/15 01:25:55;;;;;;;621.10;589.70;;;;;;;8.70;77.50;102305.66;682032;28;138116;-70
2021/12/15 01:26:17;;;;;;;596.03;565.88;;;;;;;8.71;77.40;102306.50;685737;28;68338;-70
2021/12/15 01:26:38;;;;;;;584.47;554.53;;;;;;;8.72;77.34;102308.22;685532;28;23476;-71
2021/12/15 01:27:00;;;;;;;450.42;427.95;;;;;;;8.69;77.16;102298.56;684886;28;46297;-70
2021/12/15 01:27:22;;;;;;;505.95;480.25;;;;;;;8.71;77.15;102304.66;685903;28;6812;-70
2021/12/15 01:27:44;;;;;;;578.33;547.90;;;;;;;8.71;77.40;102306.50;683317;28;46380;-70
2021/12/15 01:28:06;;;;;;;605.17;573.03;;;;;;;8.68;77.30;102310.28;681099;28;45256;-71
2021/12/15 01:28:30;;;;;;;590.97;560.15;;;;;;;8.70;77.43;102305.66;681174;28;46298;-71
2021/12/15 01:28:51;;;;;;;610.10;577.85;;;;;;;8.69;77.33;102306.63;680356;28;92274;-70
2021/12/15 01:29:13;;;;;;;611.67;579.90;;;;;;;8.70;77.13;102312.88;683352;28;22526;-70
2021/12/15 01:29:34;;;;;;;581.40;551.55;;;;;;;8.70;77.54;102307.47;683187;28;21526;-70
2021/12/15 01:29:56;;;;;;;589.88;559.53;;;;;;;8.71;77.35;102306.50;680900;28;46362;-70
2021/12/15 01:30:21;;;;;;;622.63;590.00;;;;;;;8.72;77.28;102303.69;681635;28;44353;-71
2021/12/15 01:30:46;;;;;;;599.17;568.03;;;;;;;8.72;77.31;102303.69;679654;28;114959;-70
2021/12/15 01:31:08;;;;;;;600.80;569.45;;;;;;;8.73;77.40;102305.41;679870;28;112200;-70
2021/12/15 01:31:30;;;;;;;618.67;585.88;;;;;;;8.73;77.45;102304.53;679254;28;67487;-71
2021/12/15 01:31:52;;;;;;;591.97;560.83;;;;;;;8.75;77.28;102310.66;680373;28;21547;-70
2021/12/15 01:32:14;;;;;;;591.13;560.00;;;;;;;8.74;77.43;102308.94;679226;28;69247;-70
2021/12/15 01:32:35;;;;;;;631.33;598.15;;;;;;;8.73;77.33;102318.00;680254;29;23285;-69
2021/12/15 01:32:58;;;;;;;625.92;593.38;;;;;;;8.71;77.23;102306.50;678583;28;44163;-69
2021/12/15 01:33:21;;;;;;;603.92;572.67;;;;;;;8.73;77.21;102310.78;680729;28;46326;-70
2021/12/15 01:33:42;;;;;;;604.38;572.85;;;;;;;8.74;77.43;102315.19;681608;28;92273;-70
2021/12/15 01:34:04;;;;;;;645.65;611.40;;;;;;;8.74;77.35;102322.41;687874;28;22371;-71
2021/12/15 01:34:26;;;;;;;627.40;594.95;;;;;;;8.73;77.16;102318.88;688243;28;23506;-72
2021/12/15 01:34:48;;;;;;;603.45;573.35;;;;;;;8.72;77.46;102319.84;686477;28;69243;-69
2021/12/15 01:35:09;;;;;;;612.42;581.30;;;;;;;8.73;77.37;102316.19;688207;28;23456;-71
2021/12/15 01:35:32;;;;;;;627.10;594.97;;;;;;;8.74;77.21;102311.66;686988;28;46326;-70
2021/12/15 01:36:04;;;;;;;597.17;567.10;;;;;;;8.74;77.13;102309.78;685636;28;60041;-70
2021/12/15 01:36:25;;;;;;;627.90;595.30;;;;;;;8.74;77.34;102312.50;683637;28;138054;-72
2021/12/15 01:36:47;;;;;;;626.05;593.35;;;;;;;8.72;77.55;102313.63;687226;28;46362;-70
2021/12/15 01:37:08;;;;;;;605.08;573.60;;;;;;;8.72;77.24;102309.06;685423;28;23481;-70
2021/12/15 01:37:32;;;;;;;604.72;573.03;;;;;;;8.72;77.31;102306.38;684096;28;68171;-70
2021/12/15 01:37:54;;;;;;;636.90;603.72;;;;;;;8.73;77.55;102310.78;678671;28;67262;-70
2021/12/15 01:38:17;;;;;;;618.88;587.92;;;;;;;8.71;77.16;102310.03;680645;29;46312;-71
2021/12/15 01:38:42;;;;;;;617.90;586.75;;;;;;;8.72;77.19;102311.78;679821;29;69337;-70
2021/12/15 01:39:05;;;;;;;636.58;603.88;;;;;;;8.72;77.26;102321.69;678480;28;138766;-70
2021/12/15 01:39:26;;;;;;;611.90;580.15;;;;;;;8.72;77.22;102313.63;682037;28;69422;-71
2021/12/15 01:39:53;;;;;;;581.42;551.83;;;;;;;8.72;77.23;102313.63;685211;28;23505;-70
2021/12/15 01:40:27;;;;;;;434.45;412.73;;;;;;;8.70;77.31;102311.06;681565;28;138352;-70
2021/12/15 01:40:49;;;;;;;617.67;586.22;;;;;;;8.71;77.44;102312.75;679965;28;137829;-70
2021/12/15 01:41:19;;;;;;;647.03;612.67;;;;;;;8.68;77.66;102313.00;683906;28;22428;-71
2021/12/15 01:41:42;;;;;;;637.78;604.67;;;;;;;8.71;77.67;102317.28;679148;28;160659;-70
2021/12/15 01:42:07;;;;;;;608.78;577.05;;;;;;;8.72;77.55;102319.00;681345;28;137957;-70
2021/12/15 01:42:31;;;;;;;605.70;574.00;;;;;;;8.69;77.52;102312.03;682846;28;45314;-70
2021/12/15 01:42:53;;;;;;;605.60;573.55;;;;;;;8.71;77.43;102317.28;679888;28;113512;-70
2021/12/15 01:43:22;;;;;;;628.47;595.38;;;;;;;8.71;77.30;102314.59;684351;28;23502;-71
2021/12/15 01:43:51;;;;;;;602.05;570.55;;;;;;;8.72;77.32;102316.31;681065;28;137961;-70
2021/12/15 01:46:56;;;;;;;580.03;550.20;;;;;;;8.72;77.24;102305.53;681539;28;138645;-69
2021/12/15 01:47:18;;;;;;;624.92;591.90;;;;;;;8.69;77.45;102312.03;682089;28;136408;-70
2021/12/15 01:47:41;;;;;;;598.20;566.60;;;;;;;8.70;77.35;102311.06;682295;28;69436;-71
2021/12/15 01:48:05;;;;;;;629.97;596.53;;;;;;;8.69;77.34;102311.19;683911;28;45245;-70
2021/12/15 01:48:26;;;;;;;629.38;596.25;;;;;;;8.70;77.36;102313.75;681456;28;76325;-71
2021/12/15 01:48:56;;;;;;;610.13;577.97;;;;;;;8.69;77.38;102312.03;682865;28;23540;-70
2021/12/15 01:49:22;;;;;;;630.80;597.15;;;;;;;8.67;77.58;102300.53;682880;28;137816;-70
2021/12/15 01:49:46;;;;;;;594.63;563.53;;;;;;;8.70;77.47;102305.66;683798;28;138093;-70
2021/12/15 01:50:10;;;;;;;602.95;571.30;;;;;;;8.71;77.52;102312.75;685835;28;90693;-70
2021/12/15 01:50:31;;;;;;;632.40;598.65;;;;;;;8.71;77.53;102312.75;685782;28;92077;-70
2021/12/15 01:50:54;;;;;;;641.03;607.03;;;;;;;8.71;77.67;102309.19;686906;28;46450;-70
2021/12/15 01:51:15;;;;;;;618.80;586.43;;;;;;;8.70;77.62;102308.34;683219;28;23584;-70
2021/12/15 01:51:38;;;;;;;630.72;597.25;;;;;;;8.71;77.77;102307.34;681523;28;45231;-71
2021/12/15 01:52:03;;;;;;;631.58;598.35;;;;;;;8.71;77.48;102306.50;681456;28;67129;-70
2021/12/15 01:52:26;;;;;;;624.78;592.25;;;;;;;8.73;77.43;102309.91;681025;28;92857;-70
2021/12/15 01:52:49;;;;;;;658.17;622.95;;;;;;;8.74;77.45;102308.94;679893;28;92252;-70
2021/12/15 01:53:11;;;;;;;635.10;601.25;;;;;;;8.74;77.36;102301.72;679757;28;45278;-70
2021/12/15 01:53:32;;;;;;;617.75;584.92;;;;;;;8.72;77.47;102298.31;679218;29;45280;-71
2021/12/15 01:53:55;;;;;;;641.30;607.33;;;;;;;8.73;77.40;102302.72;679037;29;44358;-72